createdAt,value
2023-04-20T00:00:55.573Z,21.51
2023-04-20T00:01:55.636Z,21.52
2023-04-20T00:02:55.799Z,21.52
2023-04-20T00:03:56.074Z,21.52
2023-04-20T00:04:55.745Z,21.53
2023-04-20T00:05:55.809Z,21.54
2023-04-20T00:06:55.836Z,21.53
2023-04-20T00:07:55.851Z,21.54
2023-04-20T00:08:55.921Z,21.54
2023-04-20T00:09:55.942Z,21.54
2023-04-20T00:10:55.975Z,21.54
2023-04-20T00:11:56.036Z,21.55
2023-04-20T00:12:56.099Z,21.55
2023-04-20T00:13:56.120Z,21.54
2023-04-20T00:14:56.142Z,21.54
2023-04-20T00:15:56.200Z,21.55
2023-04-20T00:16:56.208Z,21.55
2023-04-20T00:17:56.285Z,21.55
2023-04-20T00:18:56.346Z,21.55
2023-04-20T00:19:56.330Z,21.55
2023-04-20T00:20:56.397Z,21.55
2023-04-20T00:21:56.395Z,21.56
2023-04-20T00:22:56.434Z,21.55
2023-04-20T00:23:56.530Z,21.55
2023-04-20T00:24:56.532Z,21.56
2023-04-20T00:25:56.600Z,21.55
2023-04-20T00:26:56.638Z,21.55
2023-04-20T00:27:56.686Z,21.55
2023-04-20T00:28:56.712Z,21.56
2023-04-20T00:29:56.781Z,21.56
2023-04-20T00:30:56.848Z,21.56
2023-04-20T00:31:56.916Z,21.56
2023-04-20T00:32:57.057Z,21.56
2023-04-20T00:33:57.006Z,21.56
2023-04-20T00:34:57.045Z,21.56
2023-04-20T00:35:57.038Z,21.57
2023-04-20T00:36:57.085Z,21.57
2023-04-20T00:37:57.146Z,21.57
2023-04-20T00:38:57.430Z,21.57
2023-04-20T00:39:57.195Z,21.58
2023-04-20T00:40:57.267Z,21.57
2023-04-20T00:41:57.271Z,21.58
2023-04-20T00:42:57.314Z,21.58
2023-04-20T00:43:57.422Z,21.58
2023-04-20T00:44:57.392Z,21.59
2023-04-20T00:45:57.455Z,21.59
2023-04-20T00:46:57.492Z,21.59
2023-04-20T00:47:57.621Z,21.59
2023-04-20T00:48:57.568Z,21.60
2023-04-20T00:49:57.646Z,21.60
2023-04-20T00:50:57.712Z,21.60
2023-04-20T00:51:57.741Z,21.60
2023-04-20T00:52:57.796Z,21.61
2023-04-20T00:53:57.861Z,21.61
2023-04-20T00:54:57.899Z,21.62
2023-04-20T00:55:57.939Z,21.62
2023-04-20T00:56:58.001Z,21.63
2023-04-20T00:57:58.102Z,21.63
2023-04-20T00:58:58.014Z,21.63
2023-04-20T00:59:58.078Z,21.63
2023-04-20T01:00:58.103Z,21.64
2023-04-20T01:01:58.288Z,21.65
2023-04-20T01:02:58.223Z,21.65
2023-04-20T01:03:58.328Z,21.65
2023-04-20T01:04:58.181Z,21.66
2023-04-20T01:05:58.163Z,21.66
2023-04-20T01:06:58.201Z,21.67
2023-04-20T01:07:58.207Z,21.67
2023-04-20T01:08:58.249Z,21.67
2023-04-20T01:09:58.230Z,21.68
2023-04-20T01:10:58.234Z,21.68
2023-04-20T01:11:58.258Z,21.67
2023-04-20T01:12:58.282Z,21.68
2023-04-20T01:13:58.439Z,21.67
2023-04-20T01:14:58.311Z,21.68
2023-04-20T01:15:58.371Z,21.68
2023-04-20T01:16:58.358Z,21.68
2023-04-20T01:17:58.477Z,21.68
2023-04-20T01:18:58.446Z,21.69
2023-04-20T01:19:58.444Z,21.68
2023-04-20T01:20:58.488Z,21.68
2023-04-20T01:21:58.542Z,21.68
2023-04-20T01:22:58.547Z,21.68
2023-04-20T01:23:58.591Z,21.68
2023-04-20T01:24:58.597Z,21.67
2023-04-20T01:25:58.682Z,21.69
2023-04-20T01:26:58.699Z,21.68
2023-04-20T01:27:58.706Z,21.68
2023-04-20T01:28:58.784Z,21.69
2023-04-20T01:29:58.841Z,21.69
2023-04-20T01:30:58.867Z,21.69
2023-04-20T01:31:58.953Z,21.69
2023-04-20T01:32:58.986Z,21.69
2023-04-20T01:33:59.022Z,21.69
2023-04-20T01:34:59.019Z,21.70
2023-04-20T01:35:59.071Z,21.70
2023-04-20T01:36:59.127Z,21.70
2023-04-20T01:37:59.163Z,21.70
2023-04-20T01:38:59.212Z,21.71
2023-04-20T01:39:59.276Z,21.70
2023-04-20T01:40:59.263Z,21.71
2023-04-20T01:41:59.326Z,21.70
2023-04-20T01:42:59.342Z,21.70
2023-04-20T01:43:59.421Z,21.71
2023-04-20T01:44:59.438Z,21.71
2023-04-20T01:45:59.500Z,21.70
2023-04-20T01:46:59.621Z,21.70
2023-04-20T01:47:59.612Z,21.70
2023-04-20T01:48:59.658Z,21.70
2023-04-20T01:49:59.635Z,21.71
2023-04-20T01:50:59.663Z,21.70
2023-04-20T01:51:59.718Z,21.71
2023-04-20T01:52:59.771Z,21.71
2023-04-20T01:53:59.834Z,21.70
2023-04-20T01:54:59.842Z,21.71
2023-04-20T01:55:59.876Z,21.71
2023-04-20T01:56:59.913Z,21.72
2023-04-20T01:57:59.964Z,21.72
2023-04-20T01:59:00.011Z,21.72
2023-04-20T02:00:00.052Z,21.72
2023-04-20T02:01:00.123Z,21.73
2023-04-20T02:02:00.174Z,21.73
2023-04-20T02:03:00.248Z,21.73
2023-04-20T02:04:00.345Z,21.73
2023-04-20T02:05:00.269Z,21.73
2023-04-20T02:06:00.273Z,21.73
2023-04-20T02:07:00.307Z,21.74
2023-04-20T02:08:00.352Z,21.74
2023-04-20T02:09:00.389Z,21.74
2023-04-20T02:10:00.441Z,21.75
2023-04-20T02:11:00.497Z,21.75
2023-04-20T02:12:00.550Z,21.75
2023-04-20T02:13:00.556Z,21.75
2023-04-20T02:14:00.579Z,21.75
2023-04-20T02:15:00.604Z,21.75
2023-04-20T02:16:00.677Z,21.75
2023-04-20T02:17:00.718Z,21.76
2023-04-20T02:18:00.747Z,21.76
2023-04-20T02:19:00.762Z,21.76
2023-04-20T02:20:00.815Z,21.76
2023-04-20T02:21:00.838Z,21.76
2023-04-20T02:22:00.887Z,21.76
2023-04-20T02:23:00.900Z,21.76
2023-04-20T02:24:00.970Z,21.77
2023-04-20T02:25:01.002Z,21.77
2023-04-20T02:26:01.021Z,21.77
2023-04-20T02:27:01.093Z,21.77
2023-04-20T02:28:01.106Z,21.78
2023-04-20T02:29:01.130Z,21.77
2023-04-20T02:30:01.180Z,21.78
2023-04-20T02:31:01.238Z,21.78
2023-04-20T02:32:01.286Z,21.78
2023-04-20T02:33:01.321Z,21.77
2023-04-20T02:34:01.314Z,21.77
2023-04-20T02:35:01.334Z,21.78
2023-04-20T02:36:01.370Z,21.78
2023-04-20T02:37:01.413Z,21.78
2023-04-20T02:38:01.437Z,21.78
2023-04-20T02:39:01.516Z,21.78
2023-04-20T02:40:01.533Z,21.78
2023-04-20T02:41:01.576Z,21.77
2023-04-20T02:42:01.641Z,21.77
2023-04-20T02:43:01.634Z,21.77
2023-04-20T02:44:01.663Z,21.78
2023-04-20T02:45:01.734Z,21.78
2023-04-20T02:46:01.785Z,21.78
2023-04-20T02:47:01.773Z,21.78
2023-04-20T02:48:01.843Z,21.78
2023-04-20T02:49:01.866Z,21.78
2023-04-20T02:50:01.898Z,21.79
2023-04-20T02:51:01.931Z,21.78
2023-04-20T02:52:01.952Z,21.78
2023-04-20T02:53:02.006Z,21.78
2023-04-20T02:54:02.524Z,21.79
2023-04-20T02:55:02.078Z,21.78
2023-04-20T02:56:02.087Z,21.78
2023-04-20T02:57:02.156Z,21.78
2023-04-20T02:58:02.172Z,21.78
2023-04-20T02:59:02.199Z,21.79
2023-04-20T03:00:02.232Z,21.79
2023-04-20T03:01:02.242Z,21.78
2023-04-20T03:02:02.407Z,21.79
2023-04-20T03:03:02.454Z,21.79
2023-04-20T03:04:02.458Z,21.79
2023-04-20T03:05:02.408Z,21.79
2023-04-20T03:06:02.425Z,21.79
2023-04-20T03:07:02.443Z,21.79
2023-04-20T03:08:02.478Z,21.80
2023-04-20T03:09:02.553Z,21.80
2023-04-20T03:10:02.563Z,21.81
2023-04-20T03:11:02.580Z,21.80
2023-04-20T03:12:02.614Z,21.81
2023-04-20T03:13:02.658Z,21.80
2023-04-20T03:14:02.688Z,21.80
2023-04-20T03:15:02.695Z,21.80
2023-04-20T03:16:02.798Z,21.80
2023-04-20T03:17:02.798Z,21.81
2023-04-20T03:18:02.822Z,21.80
2023-04-20T03:19:02.870Z,21.80
2023-04-20T03:20:02.879Z,21.80
2023-04-20T03:21:02.908Z,21.81
2023-04-20T03:22:02.940Z,21.80
2023-04-20T03:23:02.913Z,21.81
2023-04-20T03:24:02.956Z,21.80
2023-04-20T03:25:02.963Z,21.81
2023-04-20T03:26:03.011Z,21.81
2023-04-20T03:27:03.048Z,21.81
2023-04-20T03:28:03.058Z,21.81
2023-04-20T03:29:03.075Z,21.81
2023-04-20T03:30:03.108Z,21.81
2023-04-20T03:31:03.134Z,21.81
2023-04-20T03:32:03.224Z,21.81
2023-04-20T03:33:03.293Z,21.81
2023-04-20T03:34:03.245Z,21.81
2023-04-20T03:35:03.272Z,21.81
2023-04-20T03:36:03.294Z,21.81
2023-04-20T03:37:03.371Z,21.80
2023-04-20T03:38:03.348Z,21.80
2023-04-20T03:39:03.385Z,21.81
2023-04-20T03:40:03.421Z,21.81
2023-04-20T03:41:03.423Z,21.80
2023-04-20T03:42:03.448Z,21.81
2023-04-20T03:43:03.495Z,21.81
2023-04-20T03:44:03.564Z,21.80
2023-04-20T03:45:03.573Z,21.81
2023-04-20T03:46:03.631Z,21.81
2023-04-20T03:47:03.611Z,21.81
2023-04-20T03:48:03.670Z,21.82
2023-04-20T03:49:03.693Z,21.81
2023-04-20T03:50:03.689Z,21.81
2023-04-20T03:51:03.702Z,21.82
2023-04-20T03:52:03.689Z,21.82
2023-04-20T03:53:03.718Z,21.82
2023-04-20T03:54:03.774Z,21.81
2023-04-20T03:55:03.765Z,21.82
2023-04-20T03:56:03.761Z,21.82
2023-04-20T03:57:03.798Z,21.82
2023-04-20T03:58:03.829Z,21.82
2023-04-20T03:59:03.885Z,21.83
2023-04-20T04:00:03.891Z,21.83
2023-04-20T04:01:03.919Z,21.82
2023-04-20T04:02:03.971Z,21.83
2023-04-20T04:03:04.125Z,21.83
2023-04-20T04:04:04.255Z,21.82
2023-04-20T04:05:04.109Z,21.83
2023-04-20T04:06:04.053Z,21.83
2023-04-20T04:07:04.062Z,21.83
2023-04-20T04:08:04.155Z,21.84
2023-04-20T04:09:04.173Z,21.84
2023-04-20T04:10:04.192Z,21.83
2023-04-20T04:11:04.189Z,21.83
2023-04-20T04:12:04.233Z,21.84
2023-04-20T04:13:04.371Z,21.84
2023-04-20T04:14:04.289Z,21.84
2023-04-20T04:15:04.341Z,21.84
2023-04-20T04:16:04.322Z,21.84
2023-04-20T04:17:04.381Z,21.84
2023-04-20T04:18:04.454Z,21.84
2023-04-20T04:19:04.427Z,21.85
2023-04-20T04:20:04.434Z,21.85
2023-04-20T04:21:04.485Z,21.84
2023-04-20T04:22:04.495Z,21.85
2023-04-20T04:23:04.541Z,21.85
2023-04-20T04:24:04.530Z,21.85
2023-04-20T04:25:04.584Z,21.85
2023-04-20T04:26:04.609Z,21.85
2023-04-20T04:27:04.670Z,21.85
2023-04-20T04:28:04.648Z,21.85
2023-04-20T04:29:04.696Z,21.85
2023-04-20T04:30:04.707Z,21.85
2023-04-20T04:31:04.791Z,21.85
2023-04-20T04:32:04.777Z,21.85
2023-04-20T04:33:05.113Z,21.85
2023-04-20T04:34:05.517Z,21.85
2023-04-20T04:35:04.865Z,21.85
2023-04-20T04:36:04.888Z,21.85
2023-04-20T04:37:04.936Z,21.85
2023-04-20T04:38:04.948Z,21.85
2023-04-20T04:39:04.964Z,21.85
2023-04-20T04:40:04.979Z,21.85
2023-04-20T04:41:05.012Z,21.85
2023-04-20T04:42:05.073Z,21.86
2023-04-20T04:43:05.104Z,21.85
2023-04-20T04:44:05.153Z,21.86
2023-04-20T04:45:05.208Z,21.86
2023-04-20T04:46:05.211Z,21.86
2023-04-20T04:47:05.206Z,21.87
2023-04-20T04:48:07.992Z,21.86
2023-04-20T04:49:05.230Z,21.85
2023-04-20T04:50:05.211Z,21.86
2023-04-20T04:51:05.192Z,21.86
2023-04-20T04:52:05.206Z,21.88
2023-04-20T04:53:05.239Z,21.87
2023-04-20T04:54:05.521Z,21.87
2023-04-20T04:55:05.163Z,21.87
2023-04-20T04:56:05.171Z,21.87
2023-04-20T04:57:05.131Z,21.87
2023-04-20T04:58:05.374Z,21.87
2023-04-20T04:59:05.130Z,21.88
2023-04-20T05:00:05.103Z,21.87
2023-04-20T05:01:05.112Z,21.88
2023-04-20T05:02:05.155Z,21.88
2023-04-20T05:03:05.146Z,21.87
2023-04-20T05:04:05.236Z,21.88
2023-04-20T05:05:05.434Z,21.87
2023-04-20T05:06:05.081Z,21.88
2023-04-20T05:07:05.066Z,21.88
2023-04-20T05:08:05.063Z,21.88
2023-04-20T05:09:05.069Z,21.89
2023-04-20T05:10:05.045Z,21.88
2023-04-20T05:11:05.106Z,21.89
2023-04-20T05:12:05.070Z,21.90
2023-04-20T05:13:05.059Z,21.89
2023-04-20T05:14:06.042Z,21.89
2023-04-20T05:15:05.018Z,21.89
2023-04-20T05:16:04.997Z,21.90
2023-04-20T05:17:04.985Z,21.90
2023-04-20T05:18:05.064Z,21.90
2023-04-20T05:19:04.998Z,21.90
2023-04-20T05:20:04.991Z,21.91
2023-04-20T05:21:04.990Z,21.90
2023-04-20T05:22:05.004Z,21.90
2023-04-20T05:23:04.959Z,21.90
2023-04-20T05:24:04.997Z,21.90
2023-04-20T05:25:04.939Z,21.91
2023-04-20T05:26:04.918Z,21.90
2023-04-20T05:27:04.944Z,21.87
2023-04-20T05:28:04.974Z,21.87
2023-04-20T05:29:04.905Z,21.88
2023-04-20T05:30:18.940Z,21.91
2023-04-20T05:31:06.003Z,21.91
2023-04-20T05:32:05.043Z,21.93
2023-04-20T05:33:04.943Z,21.94
2023-04-20T05:34:05.267Z,21.96
2023-04-20T05:35:04.949Z,21.87
2023-04-20T05:36:04.860Z,21.52
2023-04-20T05:37:04.920Z,21.19
2023-04-20T05:38:04.847Z,20.98
2023-04-20T05:39:04.824Z,20.96
2023-04-20T05:40:04.834Z,21.01
2023-04-20T05:41:04.840Z,21.12
2023-04-20T05:42:04.850Z,21.22
2023-04-20T05:43:04.800Z,21.32
2023-04-20T05:44:04.828Z,21.42
2023-04-20T05:45:04.928Z,21.53
2023-04-20T05:46:04.837Z,21.66
2023-04-20T05:47:04.815Z,21.75
2023-04-20T05:48:04.924Z,21.84
2023-04-20T05:49:05.043Z,21.93
2023-04-20T05:50:04.939Z,22.02
2023-04-20T05:51:04.848Z,22.08
2023-04-20T05:52:04.882Z,22.14
2023-04-20T05:53:04.869Z,22.20
2023-04-20T05:54:05.050Z,22.25
2023-04-20T05:55:04.895Z,22.28
2023-04-20T05:56:04.865Z,22.31
2023-04-20T05:57:04.854Z,22.37
2023-04-20T05:58:04.859Z,22.41
2023-04-20T05:59:04.907Z,22.44
2023-04-20T06:00:04.979Z,22.47
2023-04-20T06:01:04.924Z,22.49
2023-04-20T06:02:05.061Z,22.53
2023-04-20T06:03:05.209Z,22.55
2023-04-20T06:04:05.212Z,22.57
2023-04-20T06:05:05.171Z,22.60
2023-04-20T06:06:05.035Z,22.62
2023-04-20T06:07:05.040Z,22.63
2023-04-20T06:08:05.095Z,22.66
2023-04-20T06:09:05.243Z,22.69
2023-04-20T06:10:05.145Z,22.70
2023-04-20T06:11:05.234Z,22.71
2023-04-20T06:12:05.292Z,22.72
2023-04-20T06:13:05.278Z,22.74
2023-04-20T06:14:05.320Z,22.75
2023-04-20T06:15:05.441Z,22.76
2023-04-20T06:16:05.505Z,22.78
2023-04-20T06:17:05.519Z,22.79
2023-04-20T06:18:05.631Z,22.81
2023-04-20T06:19:05.646Z,22.82
2023-04-20T06:20:05.702Z,22.83
2023-04-20T06:21:05.753Z,22.85
2023-04-20T06:22:05.819Z,22.86
2023-04-20T06:23:05.921Z,22.89
2023-04-20T06:24:06.007Z,22.91
2023-04-20T06:25:06.020Z,22.93
2023-04-20T06:26:06.058Z,22.94
2023-04-20T06:27:06.149Z,22.95
2023-04-20T06:28:06.239Z,22.97
2023-04-20T06:29:06.252Z,22.98
2023-04-20T06:30:06.306Z,22.99
2023-04-20T06:31:06.492Z,23.00
2023-04-20T06:32:06.391Z,23.01
2023-04-20T06:33:06.545Z,23.02
2023-04-20T06:34:06.641Z,23.03
2023-04-20T06:35:06.534Z,23.06
2023-04-20T06:36:06.615Z,23.06
2023-04-20T06:37:06.693Z,23.04
2023-04-20T06:38:06.701Z,23.04
2023-04-20T06:39:06.733Z,23.03
2023-04-20T06:40:06.872Z,23.02
2023-04-20T06:41:06.860Z,23.00
2023-04-20T06:42:06.860Z,22.98
2023-04-20T06:43:06.928Z,22.96
2023-04-20T06:44:08.600Z,22.93
2023-04-20T06:45:07.669Z,22.91
2023-04-20T06:46:07.149Z,22.88
2023-04-20T06:47:08.186Z,22.85
2023-04-20T06:48:14.140Z,22.83
2023-04-20T06:49:08.562Z,22.80
2023-04-20T06:50:07.279Z,22.78
2023-04-20T06:51:07.210Z,22.77
2023-04-20T06:52:07.211Z,22.74
2023-04-20T06:53:07.223Z,22.73
2023-04-20T06:54:07.584Z,22.72
2023-04-20T06:55:07.195Z,22.69
2023-04-20T06:56:07.224Z,22.68
2023-04-20T06:57:07.280Z,22.67
2023-04-20T06:58:07.390Z,22.65
2023-04-20T06:59:07.596Z,22.64
2023-04-20T07:00:07.444Z,22.63
2023-04-20T07:01:08.151Z,22.63
2023-04-20T07:02:07.580Z,22.61
2023-04-20T07:03:07.624Z,22.61
2023-04-20T07:04:07.646Z,22.60
2023-04-20T07:05:08.057Z,22.60
2023-04-20T07:06:07.499Z,22.60
2023-04-20T07:07:07.505Z,22.60
2023-04-20T07:08:07.517Z,22.59
2023-04-20T07:09:07.555Z,22.59
2023-04-20T07:10:07.619Z,22.59
2023-04-20T07:11:07.662Z,22.59
2023-04-20T07:12:07.676Z,22.59
2023-04-20T07:13:07.653Z,22.59
2023-04-20T07:14:07.676Z,22.59
2023-04-20T07:15:07.670Z,22.59
2023-04-20T07:16:07.779Z,22.59
2023-04-20T07:17:07.692Z,22.58
2023-04-20T07:18:07.840Z,22.58
2023-04-20T07:19:07.826Z,22.58
2023-04-20T07:20:07.754Z,22.58
2023-04-20T07:21:07.765Z,22.58
2023-04-20T07:22:07.822Z,22.58
2023-04-20T07:23:07.800Z,22.58
2023-04-20T07:24:08.075Z,22.57
2023-04-20T07:25:07.834Z,22.57
2023-04-20T07:26:07.846Z,22.58
2023-04-20T07:27:07.861Z,22.58
2023-04-20T07:28:07.865Z,22.58
2023-04-20T07:29:07.919Z,22.58
2023-04-20T07:30:07.923Z,22.56
2023-04-20T07:31:07.927Z,22.55
2023-04-20T07:32:08.020Z,22.56
2023-04-20T07:33:07.968Z,22.59
2023-04-20T07:34:08.075Z,22.65
2023-04-20T07:35:08.013Z,22.69
2023-04-20T07:36:08.069Z,22.74
2023-04-20T07:37:08.148Z,22.79
2023-04-20T07:38:08.266Z,22.84
2023-04-20T07:39:08.242Z,22.87
2023-04-20T07:40:08.318Z,22.91
2023-04-20T07:41:08.320Z,22.94
2023-04-20T07:42:08.400Z,22.99
2023-04-20T07:43:08.550Z,23.03
2023-04-20T07:44:08.500Z,23.09
2023-04-20T07:45:08.522Z,23.12
2023-04-20T07:46:08.681Z,23.17
2023-04-20T07:47:08.601Z,23.19
2023-04-20T07:48:08.643Z,23.21
2023-04-20T07:49:09.088Z,23.23
2023-04-20T07:50:08.664Z,23.22
2023-04-20T07:51:08.693Z,23.24
2023-04-20T07:52:16.526Z,23.25
2023-04-20T07:53:09.735Z,23.26
2023-04-20T07:54:08.730Z,23.27
2023-04-20T07:55:08.706Z,23.28
2023-04-20T07:56:08.716Z,23.30
2023-04-20T07:57:08.682Z,23.30
2023-04-20T07:58:08.701Z,23.31
2023-04-20T07:59:09.129Z,23.30
2023-04-20T08:00:08.924Z,23.29
2023-04-20T08:01:08.709Z,23.27
2023-04-20T08:02:08.801Z,23.26
2023-04-20T08:03:08.978Z,23.25
2023-04-20T08:04:09.481Z,23.23
2023-04-20T08:05:11.803Z,23.21
2023-04-20T08:06:08.648Z,23.19
2023-04-20T08:07:08.732Z,23.17
2023-04-20T08:08:08.661Z,23.14
2023-04-20T08:09:08.669Z,23.12
2023-04-20T08:10:08.653Z,23.11
2023-04-20T08:11:08.603Z,23.09
2023-04-20T08:12:08.585Z,23.07
2023-04-20T08:13:08.623Z,23.06
2023-04-20T08:14:08.595Z,23.04
2023-04-20T08:15:08.662Z,23.03
2023-04-20T08:16:08.609Z,23.01
2023-04-20T08:17:08.599Z,23.00
2023-04-20T08:18:08.595Z,22.99
2023-04-20T08:19:08.562Z,22.98
2023-04-20T08:20:08.574Z,22.97
2023-04-20T08:21:08.604Z,22.97
2023-04-20T08:22:08.535Z,22.96
2023-04-20T08:23:08.507Z,22.95
2023-04-20T08:24:08.628Z,22.91
2023-04-20T08:25:08.557Z,22.92
2023-04-20T08:26:08.582Z,22.92
2023-04-20T08:27:08.490Z,22.91
2023-04-20T08:28:12.218Z,22.92
2023-04-20T08:29:10.100Z,22.90
2023-04-20T08:30:08.704Z,22.89
2023-04-20T08:31:08.735Z,22.90
2023-04-20T08:32:08.729Z,22.89
2023-04-20T08:33:08.854Z,22.89
2023-04-20T08:34:08.881Z,22.89
2023-04-20T08:35:08.885Z,22.89
2023-04-20T08:36:08.896Z,22.89
2023-04-20T08:37:08.912Z,22.89
2023-04-20T08:38:08.980Z,22.89
2023-04-20T08:39:09.067Z,22.88
2023-04-20T08:40:09.069Z,22.88
2023-04-20T08:41:09.140Z,22.88
2023-04-20T08:42:09.220Z,22.88
2023-04-20T08:43:09.234Z,22.88
2023-04-20T08:44:09.725Z,22.88
2023-04-20T08:45:09.314Z,22.88
2023-04-20T08:46:09.376Z,22.90
2023-04-20T08:47:09.410Z,22.89
2023-04-20T08:48:09.525Z,22.89
2023-04-20T08:49:09.659Z,22.89
2023-04-20T08:50:09.562Z,22.89
2023-04-20T08:51:09.691Z,22.89
2023-04-20T08:52:09.756Z,22.88
2023-04-20T08:53:12.590Z,22.88
2023-04-20T08:54:10.138Z,22.89
2023-04-20T08:55:09.707Z,22.88
2023-04-20T08:56:09.652Z,22.88
2023-04-20T08:57:09.654Z,22.88
2023-04-20T08:58:09.678Z,22.88
2023-04-20T08:59:09.680Z,22.88
2023-04-20T09:00:11.596Z,22.87
2023-04-20T09:01:09.686Z,22.87
2023-04-20T09:02:09.702Z,22.87
2023-04-20T09:03:09.784Z,22.87
2023-04-20T09:04:09.916Z,22.87
2023-04-20T09:05:09.658Z,22.87
2023-04-20T09:06:09.718Z,22.87
2023-04-20T09:07:09.623Z,22.86
2023-04-20T09:08:09.652Z,22.86
2023-04-20T09:09:09.615Z,22.85
2023-04-20T09:10:09.564Z,22.85
2023-04-20T09:11:09.569Z,22.85
2023-04-20T09:12:09.563Z,22.84
2023-04-20T09:13:09.584Z,22.84
2023-04-20T09:14:10.197Z,22.84
2023-04-20T09:15:09.585Z,22.84
2023-04-20T09:16:09.554Z,22.84
2023-04-20T09:17:09.573Z,22.85
2023-04-20T09:18:09.544Z,22.85
2023-04-20T09:19:10.430Z,22.85
2023-04-20T09:20:09.505Z,22.85
2023-04-20T09:21:09.491Z,22.85
2023-04-20T09:22:09.573Z,22.85
2023-04-20T09:23:09.504Z,22.85
2023-04-20T09:24:09.591Z,22.84
2023-04-20T09:25:09.612Z,22.84
2023-04-20T09:26:09.657Z,22.84
2023-04-20T09:27:09.718Z,22.84
2023-04-20T09:28:09.838Z,22.85
2023-04-20T09:29:09.881Z,22.85
2023-04-20T09:30:09.938Z,22.85
2023-04-20T09:31:09.964Z,22.85
2023-04-20T09:32:10.074Z,22.81
2023-04-20T09:33:10.111Z,22.81
2023-04-20T09:34:10.642Z,22.81
2023-04-20T09:35:10.219Z,22.83
2023-04-20T09:36:10.276Z,22.88
2023-04-20T09:37:10.324Z,22.94
2023-04-20T09:38:10.414Z,23.00
2023-04-20T09:39:11.141Z,23.05
2023-04-20T09:40:10.532Z,23.09
2023-04-20T09:41:10.558Z,23.14
2023-04-20T09:42:10.591Z,23.19
2023-04-20T09:43:10.634Z,23.23
2023-04-20T09:44:11.117Z,23.27
2023-04-20T09:45:10.739Z,23.30
2023-04-20T09:46:10.774Z,23.33
2023-04-20T09:47:10.772Z,23.36
2023-04-20T09:48:10.819Z,23.39
2023-04-20T09:49:11.119Z,23.41
2023-04-20T09:50:24.785Z,23.42
2023-04-20T09:51:11.844Z,23.45
2023-04-20T09:52:10.884Z,23.48
2023-04-20T09:53:10.839Z,23.50
2023-04-20T09:54:10.924Z,23.52
2023-04-20T09:55:10.930Z,23.55
2023-04-20T09:56:10.815Z,23.57
2023-04-20T09:57:10.816Z,23.58
2023-04-20T09:58:10.877Z,23.60
2023-04-20T09:59:10.833Z,23.63
2023-04-20T10:00:10.835Z,23.64
2023-04-20T10:01:10.821Z,23.66
2023-04-20T10:02:10.902Z,23.69
2023-04-20T10:03:11.026Z,23.69
2023-04-20T10:04:11.044Z,23.69
2023-04-20T10:05:10.736Z,23.69
2023-04-20T10:06:10.753Z,23.71
2023-04-20T10:07:10.756Z,23.69
2023-04-20T10:08:10.718Z,23.70
2023-04-20T10:09:10.719Z,23.71
2023-04-20T10:10:10.736Z,23.72
2023-04-20T10:11:10.796Z,23.72
2023-04-20T10:12:10.696Z,23.72
2023-04-20T10:13:10.682Z,23.72
2023-04-20T10:14:10.719Z,23.72
2023-04-20T10:15:10.746Z,23.72
2023-04-20T10:16:10.773Z,23.65
2023-04-20T10:17:10.814Z,23.52
2023-04-20T10:18:10.793Z,23.42
2023-04-20T10:19:10.668Z,23.27
2023-04-20T10:20:10.697Z,23.14
2023-04-20T10:21:10.654Z,23.04
2023-04-20T10:22:10.632Z,23.00
2023-04-20T10:23:10.663Z,22.99
2023-04-20T10:24:10.713Z,22.94
2023-04-20T10:25:10.819Z,22.94
2023-04-20T10:26:10.826Z,22.92
2023-04-20T10:27:10.891Z,22.95
2023-04-20T10:28:11.004Z,22.96
2023-04-20T10:29:11.012Z,22.96
2023-04-20T10:30:11.155Z,22.96
2023-04-20T10:31:11.153Z,23.01
2023-04-20T10:32:11.148Z,23.08
2023-04-20T10:33:11.482Z,23.16
2023-04-20T10:34:11.227Z,23.20
2023-04-20T10:35:11.686Z,23.26
2023-04-20T10:36:11.309Z,23.32
2023-04-20T10:37:11.336Z,23.38
2023-04-20T10:38:11.373Z,23.43
2023-04-20T10:39:11.366Z,23.47
2023-04-20T10:40:11.707Z,23.51
2023-04-20T10:41:11.456Z,23.54
2023-04-20T10:42:11.458Z,23.56
2023-04-20T10:43:11.420Z,23.58
2023-04-20T10:44:11.482Z,23.59
2023-04-20T10:45:11.693Z,23.58
2023-04-20T10:46:11.512Z,23.58
2023-04-20T10:47:11.476Z,23.55
2023-04-20T10:48:13.124Z,23.54
2023-04-20T10:49:11.423Z,23.53
2023-04-20T10:50:11.486Z,23.53
2023-04-20T10:51:11.632Z,23.52
2023-04-20T10:52:11.585Z,23.51
2023-04-20T10:53:11.485Z,23.50
2023-04-20T10:54:11.583Z,23.49
2023-04-20T10:55:11.529Z,23.47
2023-04-20T10:56:11.587Z,23.46
2023-04-20T10:57:11.608Z,23.44
2023-04-20T10:58:11.629Z,23.43
2023-04-20T10:59:12.179Z,23.43
2023-04-20T11:00:11.702Z,23.42
2023-04-20T11:01:11.664Z,23.41
2023-04-20T11:02:11.858Z,23.40
2023-04-20T11:03:11.778Z,23.40
2023-04-20T11:04:11.783Z,23.39
2023-04-20T11:05:11.918Z,23.39
2023-04-20T11:06:11.780Z,23.37
2023-04-20T11:07:11.813Z,23.36
2023-04-20T11:08:12.659Z,23.36
2023-04-20T11:09:11.833Z,23.35
2023-04-20T11:10:11.868Z,23.34
2023-04-20T11:11:11.966Z,23.33
2023-04-20T11:12:11.961Z,23.33
2023-04-20T11:13:11.971Z,23.32
2023-04-20T11:14:12.041Z,23.31
2023-04-20T11:15:12.052Z,23.30
2023-04-20T11:16:12.050Z,23.35
2023-04-20T11:17:12.170Z,23.38
2023-04-20T11:18:12.198Z,23.42
2023-04-20T11:19:12.168Z,23.46
2023-04-20T11:20:12.157Z,23.48
2023-04-20T11:21:12.227Z,23.48
2023-04-20T11:22:12.336Z,23.48
2023-04-20T11:23:12.194Z,23.48
2023-04-20T11:24:12.219Z,23.48
2023-04-20T11:25:12.242Z,23.49
2023-04-20T11:26:12.231Z,23.48
2023-04-20T11:27:12.253Z,23.47
2023-04-20T11:28:12.236Z,23.47
2023-04-20T11:29:12.317Z,23.46
2023-04-20T11:30:12.296Z,23.46
2023-04-20T11:31:12.327Z,23.44
2023-04-20T11:32:12.407Z,23.43
2023-04-20T11:33:12.493Z,23.43
2023-04-20T11:34:12.347Z,23.42
2023-04-20T11:35:12.325Z,23.42
2023-04-20T11:36:12.339Z,23.41
2023-04-20T11:37:12.354Z,23.41
2023-04-20T11:38:12.370Z,23.40
2023-04-20T11:39:12.392Z,23.40
2023-04-20T11:40:12.669Z,23.40
2023-04-20T11:41:12.430Z,23.40
2023-04-20T11:42:12.518Z,23.40
2023-04-20T11:43:12.522Z,23.39
2023-04-20T11:44:12.535Z,23.39
2023-04-20T11:45:12.663Z,23.39
2023-04-20T11:46:12.670Z,23.39
2023-04-20T11:47:12.632Z,23.38
2023-04-20T11:48:12.650Z,23.38
2023-04-20T11:49:12.707Z,23.39
2023-04-20T11:50:13.196Z,23.38
2023-04-20T11:51:12.781Z,23.38
2023-04-20T11:52:12.747Z,23.38
2023-04-20T11:53:12.783Z,23.38
2023-04-20T11:54:12.872Z,23.37
2023-04-20T11:55:13.204Z,23.37
2023-04-20T11:56:12.801Z,23.37
2023-04-20T11:57:12.833Z,23.37
2023-04-20T11:58:13.681Z,23.37
2023-04-20T11:59:12.864Z,23.37
2023-04-20T12:00:13.167Z,23.36
2023-04-20T12:01:12.871Z,23.36
2023-04-20T12:02:12.992Z,23.35
2023-04-20T12:03:13.090Z,23.35
2023-04-20T12:04:13.072Z,23.33
2023-04-20T12:05:13.305Z,23.33
2023-04-20T12:06:12.998Z,23.32
2023-04-20T12:07:12.989Z,23.32
2023-04-20T12:08:13.061Z,23.32
2023-04-20T12:09:13.043Z,23.31
2023-04-20T12:10:13.117Z,23.30
2023-04-20T12:11:13.078Z,23.30
2023-04-20T12:12:13.067Z,23.29
2023-04-20T12:13:13.091Z,23.28
2023-04-20T12:14:13.144Z,23.28
2023-04-20T12:15:13.185Z,23.27
2023-04-20T12:16:13.332Z,23.27
2023-04-20T12:17:13.201Z,23.26
2023-04-20T12:18:13.286Z,23.25
2023-04-20T12:19:13.312Z,23.25
2023-04-20T12:20:13.433Z,23.25
2023-04-20T12:21:13.379Z,23.24
2023-04-20T12:22:13.458Z,23.23
2023-04-20T12:23:13.479Z,23.22
2023-04-20T12:24:13.545Z,23.21
2023-04-20T12:25:13.559Z,23.20
2023-04-20T12:26:13.624Z,23.20
2023-04-20T12:27:13.692Z,23.19
2023-04-20T12:28:13.697Z,23.19
2023-04-20T12:29:13.769Z,23.18
2023-04-20T12:30:13.834Z,23.18
2023-04-20T12:31:13.894Z,23.18
2023-04-20T12:32:13.942Z,23.17
2023-04-20T12:33:14.146Z,23.16
2023-04-20T12:34:14.019Z,23.15
2023-04-20T12:35:14.096Z,23.15
2023-04-20T12:36:14.129Z,23.14
2023-04-20T12:37:14.200Z,23.14
2023-04-20T12:38:14.722Z,23.14
2023-04-20T12:39:14.256Z,23.14
2023-04-20T12:40:14.307Z,23.14
2023-04-20T12:41:14.303Z,23.13
2023-04-20T12:42:14.342Z,23.13
2023-04-20T12:43:14.400Z,23.13
2023-04-20T12:44:14.417Z,23.11
2023-04-20T12:45:14.449Z,23.11
2023-04-20T12:46:14.524Z,23.12
2023-04-20T12:47:14.532Z,23.09
2023-04-20T12:48:14.639Z,23.09
2023-04-20T12:49:14.641Z,23.09
2023-04-20T12:50:14.660Z,23.09
2023-04-20T12:51:14.714Z,23.08
2023-04-20T12:52:14.759Z,23.07
2023-04-20T12:53:14.810Z,23.06